sensor_id;sensor_type;location;lat;lon;timestamp;P1;durP1;ratioP1;P2;durP2;ratioP2
2562;SDS011;1291;51.420;6.970;2023-06-10T00:00:48;7.18;;;6.55;;
2562;SDS011;1291;51.420;6.970;2023-06-10T00:03:13;8.30;;;6.80;;
2562;SDS011;1291;51.420;6.970;2023-06-10T00:05:39;7.32;;;6.63;;
2562;SDS011;1291;51.420;6.970;2023-06-10T00:08:05;8.27;;;6.80;;
2562;SDS011;1291;51.420;6.970;2023-06-10T00:10:36;9.02;;;6.70;;
2562;SDS011;1291;51.420;6.970;2023-06-10T00:13:04;6.55;;;5.95;;
2562;SDS011;1291;51.420;6.970;2023-06-10T00:15:30;8.27;;;6.43;;
2562;SDS011;1291;51.420;6.970;2023-06-10T00:17:56;7.30;;;6.60;;
2562;SDS011;1291;51.420;6.970;2023-06-10T00:20:21;7.35;;;6.47;;
2562;SDS011;1291;51.420;6.970;2023-06-10T00:22:49;7.20;;;6.50;;
2562;SDS011;1291;51.420;6.970;2023-06-10T00:25:14;7.38;;;6.68;;
2562;SDS011;1291;51.420;6.970;2023-06-10T00:27:40;8.23;;;7.53;;
2562;SDS011;1291;51.420;6.970;2023-06-10T00:30:08;6.97;;;6.22;;
2562;SDS011;1291;51.420;6.970;2023-06-10T00:32:34;7.63;;;6.78;;
2562;SDS011;1291;51.420;6.970;2023-06-10T00:35:00;7.47;;;6.72;;
2562;SDS011;1291;51.420;6.970;2023-06-10T00:37:26;8.90;;;6.72;;
2562;SDS011;1291;51.420;6.970;2023-06-10T00:39:52;10.70;;;6.85;;
2562;SDS011;1291;51.420;6.970;2023-06-10T00:42:17;8.88;;;7.50;;
2562;SDS011;1291;51.420;6.970;2023-06-10T00:44:42;7.65;;;6.95;;
2562;SDS011;1291;51.420;6.970;2023-06-10T00:47:08;8.68;;;7.15;;
2562;SDS011;1291;51.420;6.970;2023-06-10T00:49:33;8.02;;;7.07;;
2562;SDS011;1291;51.420;6.970;2023-06-10T00:51:59;8.55;;;6.75;;
2562;SDS011;1291;51.420;6.970;2023-06-10T00:54:26;8.05;;;7.25;;
2562;SDS011;1291;51.420;6.970;2023-06-10T00:56:52;7.43;;;6.68;;
2562;SDS011;1291;51.420;6.970;2023-06-10T00:59:21;8.52;;;7.00;;
2562;SDS011;1291;51.420;6.970;2023-06-10T01:01:47;9.85;;;7.40;;
2562;SDS011;1291;51.420;6.970;2023-06-10T01:04:12;7.57;;;6.68;;
2562;SDS011;1291;51.420;6.970;2023-06-10T01:09:18;8.82;;;6.85;;
2562;SDS011;1291;51.420;6.970;2023-06-10T01:11:58;7.75;;;7.00;;
2562;SDS011;1291;51.420;6.970;2023-06-10T01:14:33;7.95;;;7.25;;
2562;SDS011;1291;51.420;6.970;2023-06-10T01:17:00;9.07;;;7.18;;
2562;SDS011;1291;51.420;6.970;2023-06-10T01:19:29;9.23;;;6.97;;
2562;SDS011;1291;51.420;6.970;2023-06-10T01:21:57;8.38;;;7.43;;
2562;SDS011;1291;51.420;6.970;2023-06-10T01:24:25;8.15;;;7.35;;
2562;SDS011;1291;51.420;6.970;2023-06-10T01:26:57;8.13;;;7.32;;
2562;SDS011;1291;51.420;6.970;2023-06-10T01:29:48;8.40;;;6.78;;
2562;SDS011;1291;51.420;6.970;2023-06-10T01:32:26;10.18;;;7.70;;
2562;SDS011;1291;51.420;6.970;2023-06-10T01:34:58;8.15;;;7.45;;
2562;SDS011;1291;51.420;6.970;2023-06-10T01:37:25;9.93;;;8.55;;
2562;SDS011;1291;51.420;6.970;2023-06-10T01:39:51;8.63;;;7.28;;
2562;SDS011;1291;51.420;6.970;2023-06-10T01:42:18;8.38;;;7.28;;
2562;SDS011;1291;51.420;6.970;2023-06-10T01:44:43;7.55;;;6.93;;
2562;SDS011;1291;51.420;6.970;2023-06-10T01:47:09;7.78;;;7.03;;
2562;SDS011;1291;51.420;6.970;2023-06-10T01:49:34;10.93;;;7.43;;
2562;SDS011;1291;51.420;6.970;2023-06-10T01:52:00;8.30;;;7.50;;
2562;SDS011;1291;51.420;6.970;2023-06-10T01:54:25;10.35;;;7.75;;
2562;SDS011;1291;51.420;6.970;2023-06-10T01:56:51;10.18;;;7.80;;
2562;SDS011;1291;51.420;6.970;2023-06-10T01:59:16;13.43;;;7.40;;
2562;SDS011;1291;51.420;6.970;2023-06-10T02:01:44;8.20;;;6.88;;
2562;SDS011;1291;51.420;6.970;2023-06-10T02:04:13;8.82;;;7.68;;
2562;SDS011;1291;51.420;6.970;2023-06-10T02:06:38;10.32;;;8.25;;
2562;SDS011;1291;51.420;6.970;2023-06-10T02:09:03;7.65;;;7.00;;
2562;SDS011;1291;51.420;6.970;2023-06-10T02:11:29;10.18;;;7.90;;
2562;SDS011;1291;51.420;6.970;2023-06-10T02:13:54;11.00;;;8.15;;
2562;SDS011;1291;51.420;6.970;2023-06-10T02:16:23;8.43;;;7.35;;
2562;SDS011;1291;51.420;6.970;2023-06-10T02:18:48;8.43;;;7.32;;
2562;SDS011;1291;51.420;6.970;2023-06-10T02:21:14;9.48;;;7.72;;
2562;SDS011;1291;51.420;6.970;2023-06-10T02:23:39;8.43;;;7.63;;
2562;SDS011;1291;51.420;6.970;2023-06-10T02:26:05;8.18;;;7.15;;
2562;SDS011;1291;51.420;6.970;2023-06-10T02:28:30;9.60;;;8.70;;
2562;SDS011;1291;51.420;6.970;2023-06-10T02:30:56;8.98;;;8.07;;
2562;SDS011;1291;51.420;6.970;2023-06-10T02:33:25;9.00;;;8.10;;
2562;SDS011;1291;51.420;6.970;2023-06-10T02:35:53;9.15;;;8.27;;
2562;SDS011;1291;51.420;6.970;2023-06-10T02:38:18;9.45;;;8.07;;
2562;SDS011;1291;51.420;6.970;2023-06-10T02:40:43;9.75;;;8.25;;
2562;SDS011;1291;51.420;6.970;2023-06-10T02:43:09;9.00;;;8.20;;
2562;SDS011;1291;51.420;6.970;2023-06-10T02:45:34;10.00;;;8.05;;
2562;SDS011;1291;51.420;6.970;2023-06-10T02:47:59;9.40;;;8.43;;
2562;SDS011;1291;51.420;6.970;2023-06-10T02:50:25;9.10;;;8.20;;
2562;SDS011;1291;51.420;6.970;2023-06-10T02:52:50;9.20;;;8.27;;
2562;SDS011;1291;51.420;6.970;2023-06-10T02:55:18;11.15;;;8.63;;
2562;SDS011;1291;51.420;6.970;2023-06-10T02:57:43;10.80;;;9.45;;
2562;SDS011;1291;51.420;6.970;2023-06-10T03:00:09;10.55;;;8.88;;
2562;SDS011;1291;51.420;6.970;2023-06-10T03:02:36;13.18;;;8.57;;
2562;SDS011;1291;51.420;6.970;2023-06-10T03:05:04;10.45;;;8.85;;
2562;SDS011;1291;51.420;6.970;2023-06-10T03:07:33;9.23;;;8.35;;
2562;SDS011;1291;51.420;6.970;2023-06-10T03:10:00;12.80;;;8.68;;
2562;SDS011;1291;51.420;6.970;2023-06-10T03:12:25;10.38;;;8.40;;
2562;SDS011;1291;51.420;6.970;2023-06-10T03:14:50;14.18;;;8.32;;
2562;SDS011;1291;51.420;6.970;2023-06-10T03:17:16;11.63;;;8.68;;
2562;SDS011;1291;51.420;6.970;2023-06-10T03:19:41;13.77;;;8.65;;
2562;SDS011;1291;51.420;6.970;2023-06-10T03:22:15;11.18;;;9.02;;
2562;SDS011;1291;51.420;6.970;2023-06-10T03:24:41;11.80;;;9.90;;
2562;SDS011;1291;51.420;6.970;2023-06-10T03:27:11;10.13;;;8.90;;
2562;SDS011;1291;51.420;6.970;2023-06-10T03:29:39;9.98;;;8.98;;
2562;SDS011;1291;51.420;6.970;2023-06-10T03:32:05;11.18;;;8.80;;
2562;SDS011;1291;51.420;6.970;2023-06-10T03:34:31;11.77;;;9.18;;
2562;SDS011;1291;51.420;6.970;2023-06-10T03:36:57;10.20;;;9.10;;
2562;SDS011;1291;51.420;6.970;2023-06-10T03:39:23;10.23;;;9.15;;
2562;SDS011;1291;51.420;6.970;2023-06-10T03:41:48;13.68;;;9.30;;
2562;SDS011;1291;51.420;6.970;2023-06-10T03:44:16;10.43;;;9.32;;
2562;SDS011;1291;51.420;6.970;2023-06-10T03:46:42;12.27;;;9.05;;
2562;SDS011;1291;51.420;6.970;2023-06-10T03:49:07;14.52;;;10.00;;
2562;SDS011;1291;51.420;6.970;2023-06-10T03:51:35;11.68;;;10.27;;
2562;SDS011;1291;51.420;6.970;2023-06-10T03:54:01;10.70;;;9.75;;
2562;SDS011;1291;51.420;6.970;2023-06-10T03:56:27;12.13;;;10.05;;
2562;SDS011;1291;51.420;6.970;2023-06-10T03:58:53;16.05;;;10.75;;
2562;SDS011;1291;51.420;6.970;2023-06-10T04:01:18;10.85;;;9.75;;
2562;SDS011;1291;51.420;6.970;2023-06-10T04:03:45;11.98;;;10.45;;
2562;SDS011;1291;51.420;6.970;2023-06-10T04:06:16;11.13;;;10.00;;
2562;SDS011;1291;51.420;6.970;2023-06-10T04:08:42;11.80;;;10.65;;
2562;SDS011;1291;51.420;6.970;2023-06-10T04:11:08;13.35;;;10.80;;
2562;SDS011;1291;51.420;6.970;2023-06-10T04:13:33;18.58;;;10.30;;
2562;SDS011;1291;51.420;6.970;2023-06-10T04:15:58;12.70;;;11.07;;
2562;SDS011;1291;51.420;6.970;2023-06-10T04:18:24;12.00;;;10.80;;
2562;SDS011;1291;51.420;6.970;2023-06-10T04:20:50;15.10;;;10.90;;
2562;SDS011;1291;51.420;6.970;2023-06-10T04:23:16;12.02;;;10.90;;
2562;SDS011;1291;51.420;6.970;2023-06-10T04:25:41;15.18;;;10.95;;
2562;SDS011;1291;51.420;6.970;2023-06-10T04:28:06;11.23;;;10.20;;
2562;SDS011;1291;51.420;6.970;2023-06-10T04:30:32;13.18;;;11.80;;
2562;SDS011;1291;51.420;6.970;2023-06-10T04:32:57;11.93;;;10.60;;
2562;SDS011;1291;51.420;6.970;2023-06-10T04:35:22;12.70;;;10.88;;
2562;SDS011;1291;51.420;6.970;2023-06-10T04:37:48;15.95;;;10.85;;
2562;SDS011;1291;51.420;6.970;2023-06-10T04:40:13;15.77;;;11.63;;
2562;SDS011;1291;51.420;6.970;2023-06-10T04:42:41;11.77;;;10.65;;
2562;SDS011;1291;51.420;6.970;2023-06-10T04:45:09;11.30;;;10.10;;
2562;SDS011;1291;51.420;6.970;2023-06-10T04:47:34;19.45;;;12.82;;
2562;SDS011;1291;51.420;6.970;2023-06-10T04:50:03;14.00;;;12.63;;
2562;SDS011;1291;51.420;6.970;2023-06-10T04:52:32;13.93;;;11.75;;
2562;SDS011;1291;51.420;6.970;2023-06-10T04:54:58;16.25;;;12.60;;
2562;SDS011;1291;51.420;6.970;2023-06-10T04:57:24;13.85;;;11.73;;
2562;SDS011;1291;51.420;6.970;2023-06-10T04:59:49;16.85;;;12.68;;
2562;SDS011;1291;51.420;6.970;2023-06-10T05:02:15;14.07;;;12.77;;
2562;SDS011;1291;51.420;6.970;2023-06-10T05:04:40;17.75;;;13.02;;
2562;SDS011;1291;51.420;6.970;2023-06-10T05:07:06;13.75;;;12.02;;
2562;SDS011;1291;51.420;6.970;2023-06-10T05:09:31;13.35;;;12.05;;
2562;SDS011;1291;51.420;6.970;2023-06-10T05:11:58;15.32;;;12.30;;
2562;SDS011;1291;51.420;6.970;2023-06-10T05:14:23;17.10;;;12.27;;
2562;SDS011;1291;51.420;6.970;2023-06-10T05:16:48;13.60;;;12.05;;
2562;SDS011;1291;51.420;6.970;2023-06-10T05:19:13;12.70;;;11.38;;
2562;SDS011;1291;51.420;6.970;2023-06-10T05:21:41;14.93;;;10.93;;
2562;SDS011;1291;51.420;6.970;2023-06-10T05:24:06;12.02;;;10.70;;
2562;SDS011;1291;51.420;6.970;2023-06-10T05:26:32;12.35;;;11.15;;
2562;SDS011;1291;51.420;6.970;2023-06-10T05:28:58;12.52;;;10.23;;
2562;SDS011;1291;51.420;6.970;2023-06-10T05:31:23;11.48;;;10.35;;
2562;SDS011;1291;51.420;6.970;2023-06-10T05:33:49;11.93;;;10.80;;
2562;SDS011;1291;51.420;6.970;2023-06-10T05:36:14;11.35;;;10.23;;
2562;SDS011;1291;51.420;6.970;2023-06-10T05:38:39;12.48;;;10.07;;
2562;SDS011;1291;51.420;6.970;2023-06-10T05:41:05;11.25;;;9.98;;
2562;SDS011;1291;51.420;6.970;2023-06-10T05:43:33;14.35;;;9.95;;
2562;SDS011;1291;51.420;6.970;2023-06-10T05:45:58;12.00;;;9.98;;
2562;SDS011;1291;51.420;6.970;2023-06-10T05:48:23;10.18;;;9.13;;
2562;SDS011;1291;51.420;6.970;2023-06-10T05:50:49;10.95;;;9.27;;
2562;SDS011;1291;51.420;6.970;2023-06-10T05:53:15;10.35;;;9.35;;
2562;SDS011;1291;51.420;6.970;2023-06-10T05:55:44;10.02;;;9.02;;
2562;SDS011;1291;51.420;6.970;2023-06-10T05:58:10;12.00;;;9.40;;
2562;SDS011;1291;51.420;6.970;2023-06-10T06:00:37;9.73;;;8.82;;
2562;SDS011;1291;51.420;6.970;2023-06-10T06:03:07;9.93;;;8.93;;
2562;SDS011;1291;51.420;6.970;2023-06-10T06:05:36;11.63;;;9.30;;
2562;SDS011;1291;51.420;6.970;2023-06-10T06:08:03;11.20;;;8.70;;
2562;SDS011;1291;51.420;6.970;2023-06-10T06:10:29;11.43;;;9.18;;
2562;SDS011;1291;51.420;6.970;2023-06-10T06:12:58;10.90;;;9.27;;
2562;SDS011;1291;51.420;6.970;2023-06-10T06:15:23;10.07;;;8.50;;
2562;SDS011;1291;51.420;6.970;2023-06-10T06:17:49;10.13;;;9.05;;
2562;SDS011;1291;51.420;6.970;2023-06-10T06:20:17;9.55;;;8.20;;
2562;SDS011;1291;51.420;6.970;2023-06-10T06:22:42;9.10;;;8.02;;
2562;SDS011;1291;51.420;6.970;2023-06-10T06:25:08;11.45;;;7.68;;
2562;SDS011;1291;51.420;6.970;2023-06-10T06:27:36;9.73;;;7.95;;
2562;SDS011;1291;51.420;6.970;2023-06-10T06:30:02;8.43;;;7.63;;
2562;SDS011;1291;51.420;6.970;2023-06-10T06:32:27;9.88;;;8.95;;
2562;SDS011;1291;51.420;6.970;2023-06-10T06:34:53;7.68;;;6.95;;
2562;SDS011;1291;51.420;6.970;2023-06-10T06:37:25;7.70;;;6.97;;
2562;SDS011;1291;51.420;6.970;2023-06-10T06:39:51;8.40;;;6.95;;
2562;SDS011;1291;51.420;6.970;2023-06-10T06:42:18;8.23;;;6.90;;
2562;SDS011;1291;51.420;6.970;2023-06-10T06:44:43;7.70;;;6.88;;
2562;SDS011;1291;51.420;6.970;2023-06-10T06:47:09;9.65;;;6.70;;
2562;SDS011;1291;51.420;6.970;2023-06-10T06:49:34;10.13;;;6.30;;
2562;SDS011;1291;51.420;6.970;2023-06-10T06:52:00;7.15;;;6.45;;
2562;SDS011;1291;51.420;6.970;2023-06-10T06:54:26;7.93;;;6.18;;
2562;SDS011;1291;51.420;6.970;2023-06-10T06:56:51;7.95;;;6.18;;
2562;SDS011;1291;51.420;6.970;2023-06-10T06:59:16;10.82;;;6.45;;
2562;SDS011;1291;51.420;6.970;2023-06-10T07:01:44;10.07;;;6.72;;
2562;SDS011;1291;51.420;6.970;2023-06-10T07:04:10;8.73;;;6.55;;
2562;SDS011;1291;51.420;6.970;2023-06-10T07:06:35;7.43;;;6.35;;
2562;SDS011;1291;51.420;6.970;2023-06-10T07:09:01;7.03;;;6.25;;
2562;SDS011;1291;51.420;6.970;2023-06-10T07:11:26;7.70;;;6.60;;
2562;SDS011;1291;51.420;6.970;2023-06-10T07:13:52;8.30;;;6.18;;
2562;SDS011;1291;51.420;6.970;2023-06-10T07:16:17;14.65;;;6.13;;
2562;SDS011;1291;51.420;6.970;2023-06-10T07:18:45;8.50;;;6.65;;
2562;SDS011;1291;51.420;6.970;2023-06-10T07:21:11;7.25;;;6.25;;
2562;SDS011;1291;51.420;6.970;2023-06-10T07:23:36;7.50;;;5.65;;
2562;SDS011;1291;51.420;6.970;2023-06-10T07:26:01;7.60;;;6.00;;
2562;SDS011;1291;51.420;6.970;2023-06-10T07:28:26;6.72;;;6.13;;
2562;SDS011;1291;51.420;6.970;2023-06-10T07:30:52;8.55;;;6.72;;
2562;SDS011;1291;51.420;6.970;2023-06-10T07:33:17;12.63;;;6.50;;
2562;SDS011;1291;51.420;6.970;2023-06-10T07:35:42;9.07;;;6.93;;
2562;SDS011;1291;51.420;6.970;2023-06-10T07:38:08;7.60;;;6.43;;
2562;SDS011;1291;51.420;6.970;2023-06-10T07:40:33;11.05;;;6.22;;
2562;SDS011;1291;51.420;6.970;2023-06-10T07:43:01;10.90;;;7.10;;
2562;SDS011;1291;51.420;6.970;2023-06-10T07:45:26;7.55;;;5.90;;
2562;SDS011;1291;51.420;6.970;2023-06-10T07:47:52;8.65;;;6.38;;
2562;SDS011;1291;51.420;6.970;2023-06-10T07:50:20;7.43;;;5.57;;
2562;SDS011;1291;51.420;6.970;2023-06-10T07:52:45;6.75;;;5.85;;
2562;SDS011;1291;51.420;6.970;2023-06-10T07:55:11;10.30;;;7.00;;
2562;SDS011;1291;51.420;6.970;2023-06-10T07:57:36;6.28;;;5.68;;
2562;SDS011;1291;51.420;6.970;2023-06-10T08:00:03;8.00;;;6.97;;
2562;SDS011;1291;51.420;6.970;2023-06-10T08:02:30;8.27;;;5.63;;
2562;SDS011;1291;51.420;6.970;2023-06-10T08:04:55;6.30;;;5.70;;
2562;SDS011;1291;51.420;6.970;2023-06-10T08:07:21;9.10;;;6.00;;
2562;SDS011;1291;51.420;6.970;2023-06-10T08:09:47;7.68;;;5.75;;
2562;SDS011;1291;51.420;6.970;2023-06-10T08:12:12;9.32;;;5.60;;
2562;SDS011;1291;51.420;6.970;2023-06-10T08:14:37;7.85;;;5.45;;
2562;SDS011;1291;51.420;6.970;2023-06-10T08:17:03;7.32;;;4.97;;
2562;SDS011;1291;51.420;6.970;2023-06-10T08:19:30;8.10;;;5.70;;
2562;SDS011;1291;51.420;6.970;2023-06-10T08:21:56;6.93;;;5.38;;
2562;SDS011;1291;51.420;6.970;2023-06-10T08:24:21;8.95;;;6.15;;
2562;SDS011;1291;51.420;6.970;2023-06-10T08:26:46;7.30;;;5.70;;
2562;SDS011;1291;51.420;6.970;2023-06-10T08:29:12;6.70;;;5.75;;
2562;SDS011;1291;51.420;6.970;2023-06-10T08:31:40;10.07;;;5.78;;
2562;SDS011;1291;51.420;6.970;2023-06-10T08:34:06;8.60;;;5.63;;
2562;SDS011;1291;51.420;6.970;2023-06-10T08:36:34;6.72;;;5.32;;
2562;SDS011;1291;51.420;6.970;2023-06-10T08:39:00;7.80;;;5.82;;
2562;SDS011;1291;51.420;6.970;2023-06-10T08:41:26;6.05;;;5.20;;
2562;SDS011;1291;51.420;6.970;2023-06-10T08:43:59;8.35;;;6.13;;
2562;SDS011;1291;51.420;6.970;2023-06-10T08:46:29;9.38;;;5.55;;
2562;SDS011;1291;51.420;6.970;2023-06-10T08:48:56;11.80;;;6.03;;
2562;SDS011;1291;51.420;6.970;2023-06-10T08:51:27;5.65;;;5.05;;
2562;SDS011;1291;51.420;6.970;2023-06-10T08:54:03;8.10;;;5.97;;
2562;SDS011;1291;51.420;6.970;2023-06-10T08:56:34;11.48;;;5.90;;
2562;SDS011;1291;51.420;6.970;2023-06-10T08:59:03;6.80;;;5.18;;
2562;SDS011;1291;51.420;6.970;2023-06-10T09:01:30;8.57;;;5.57;;
2562;SDS011;1291;51.420;6.970;2023-06-10T09:03:56;7.32;;;5.97;;
2562;SDS011;1291;51.420;6.970;2023-06-10T09:06:23;10.63;;;6.13;;
2562;SDS011;1291;51.420;6.970;2023-06-10T09:08:49;10.30;;;6.15;;
2562;SDS011;1291;51.420;6.970;2023-06-10T09:11:15;6.10;;;5.20;;
2562;SDS011;1291;51.420;6.970;2023-06-10T09:13:41;5.65;;;5.15;;
2562;SDS011;1291;51.420;6.970;2023-06-10T09:16:06;6.50;;;5.43;;
2562;SDS011;1291;51.420;6.970;2023-06-10T09:18:31;7.15;;;5.78;;
2562;SDS011;1291;51.420;6.970;2023-06-10T09:20:57;7.55;;;5.97;;
2562;SDS011;1291;51.420;6.970;2023-06-10T09:23:22;12.50;;;6.38;;
2562;SDS011;1291;51.420;6.970;2023-06-10T09:25:53;9.60;;;5.72;;
2562;SDS011;1291;51.420;6.970;2023-06-10T09:28:22;6.32;;;5.70;;
2562;SDS011;1291;51.420;6.970;2023-06-10T09:30:47;6.72;;;5.50;;
2562;SDS011;1291;51.420;6.970;2023-06-10T09:33:13;9.77;;;5.45;;
2562;SDS011;1291;51.420;6.970;2023-06-10T09:35:47;9.65;;;6.25;;
2562;SDS011;1291;51.420;6.970;2023-06-10T09:38:14;6.93;;;5.32;;
2562;SDS011;1291;51.420;6.970;2023-06-10T09:40:48;8.35;;;5.68;;
2562;SDS011;1291;51.420;6.970;2023-06-10T09:43:15;8.90;;;5.70;;
2562;SDS011;1291;51.420;6.970;2023-06-10T09:45:41;9.00;;;6.20;;
2562;SDS011;1291;51.420;6.970;2023-06-10T09:48:08;8.88;;;5.75;;
2562;SDS011;1291;51.420;6.970;2023-06-10T09:50:33;6.72;;;5.70;;
2562;SDS011;1291;51.420;6.970;2023-06-10T09:52:59;6.95;;;5.75;;
2562;SDS011;1291;51.420;6.970;2023-06-10T09:55:27;7.40;;;6.55;;
2562;SDS011;1291;51.420;6.970;2023-06-10T09:57:53;6.03;;;5.40;;
2562;SDS011;1291;51.420;6.970;2023-06-10T10:00:19;7.07;;;6.00;;
2562;SDS011;1291;51.420;6.970;2023-06-10T10:02:49;8.50;;;6.22;;
2562;SDS011;1291;51.420;6.970;2023-06-10T10:05:18;7.80;;;5.68;;
2562;SDS011;1291;51.420;6.970;2023-06-10T10:07:45;8.52;;;5.68;;
2562;SDS011;1291;51.420;6.970;2023-06-10T10:10:11;7.88;;;5.55;;
2562;SDS011;1291;51.420;6.970;2023-06-10T10:12:38;10.73;;;5.30;;
2562;SDS011;1291;51.420;6.970;2023-06-10T10:15:05;6.40;;;5.80;;
2562;SDS011;1291;51.420;6.970;2023-06-10T10:17:33;8.52;;;5.95;;
2562;SDS011;1291;51.420;6.970;2023-06-10T10:20:02;7.90;;;5.57;;
2562;SDS011;1291;51.420;6.970;2023-06-10T10:22:30;7.00;;;5.38;;
2562;SDS011;1291;51.420;6.970;2023-06-10T10:25:01;10.02;;;6.07;;
2562;SDS011;1291;51.420;6.970;2023-06-10T10:28:29;7.55;;;5.68;;
2562;SDS011;1291;51.420;6.970;2023-06-10T10:30:42;6.55;;;5.43;;
2562;SDS011;1291;51.420;6.970;2023-06-10T10:36:07;9.27;;;6.10;;
2562;SDS011;1291;51.420;6.970;2023-06-10T10:38:33;6.43;;;5.72;;
2562;SDS011;1291;51.420;6.970;2023-06-10T10:40:59;8.90;;;5.43;;
2562;SDS011;1291;51.420;6.970;2023-06-10T10:43:26;8.52;;;6.38;;
2562;SDS011;1291;51.420;6.970;2023-06-10T10:46:00;8.77;;;5.80;;
2562;SDS011;1291;51.420;6.970;2023-06-10T10:48:26;6.63;;;6.03;;
2562;SDS011;1291;51.420;6.970;2023-06-10T10:50:58;6.93;;;5.70;;
2562;SDS011;1291;51.420;6.970;2023-06-10T10:53:29;9.25;;;5.95;;
2562;SDS011;1291;51.420;6.970;2023-06-10T10:55:59;8.85;;;5.50;;
2562;SDS011;1291;51.420;6.970;2023-06-10T10:58:29;7.47;;;5.97;;
2562;SDS011;1291;51.420;6.970;2023-06-10T11:00:55;10.82;;;6.00;;
2562;SDS011;1291;51.420;6.970;2023-06-10T11:03:24;6.63;;;5.93;;
2562;SDS011;1291;51.420;6.970;2023-06-10T11:05:56;7.78;;;5.97;;
2562;SDS011;1291;51.420;6.970;2023-06-10T11:10:56;7.40;;;5.70;;
2562;SDS011;1291;51.420;6.970;2023-06-10T11:13:22;10.35;;;6.22;;
2562;SDS011;1291;51.420;6.970;2023-06-10T11:15:48;8.35;;;5.40;;
2562;SDS011;1291;51.420;6.970;2023-06-10T11:18:30;12.65;;;6.10;;
2562;SDS011;1291;51.420;6.970;2023-06-10T11:21:04;7.40;;;5.93;;
2562;SDS011;1291;51.420;6.970;2023-06-10T11:23:40;6.20;;;5.60;;
2562;SDS011;1291;51.420;6.970;2023-06-10T11:31:20;9.75;;;5.90;;
2562;SDS011;1291;51.420;6.970;2023-06-10T11:33:51;10.95;;;6.35;;
2562;SDS011;1291;51.420;6.970;2023-06-10T11:36:18;8.95;;;5.72;;
2562;SDS011;1291;51.420;6.970;2023-06-10T11:38:44;5.95;;;5.35;;
2562;SDS011;1291;51.420;6.970;2023-06-10T11:41:10;11.20;;;6.10;;
2562;SDS011;1291;51.420;6.970;2023-06-10T11:43:36;8.30;;;6.35;;
2562;SDS011;1291;51.420;6.970;2023-06-10T11:46:07;6.82;;;6.13;;
2562;SDS011;1291;51.420;6.970;2023-06-10T11:48:33;7.75;;;5.93;;
2562;SDS011;1291;51.420;6.970;2023-06-10T11:50:59;8.73;;;6.10;;
2562;SDS011;1291;51.420;6.970;2023-06-10T11:53:24;6.70;;;6.10;;
2562;SDS011;1291;51.420;6.970;2023-06-10T11:55:50;8.15;;;5.88;;
2562;SDS011;1291;51.420;6.970;2023-06-10T11:58:20;10.10;;;5.47;;
2562;SDS011;1291;51.420;6.970;2023-06-10T12:00:50;9.70;;;5.57;;
2562;SDS011;1291;51.420;6.970;2023-06-10T12:03:18;8.05;;;6.13;;
2562;SDS011;1291;51.420;6.970;2023-06-10T12:08:42;8.18;;;6.40;;
2562;SDS011;1291;51.420;6.970;2023-06-10T12:11:08;6.95;;;6.30;;
2562;SDS011;1291;51.420;6.970;2023-06-10T12:13:37;9.05;;;6.13;;
2562;SDS011;1291;51.420;6.970;2023-06-10T12:16:13;10.25;;;6.18;;
2562;SDS011;1291;51.420;6.970;2023-06-10T12:18:43;6.38;;;5.65;;
2562;SDS011;1291;51.420;6.970;2023-06-10T12:21:42;7.13;;;6.40;;
2562;SDS011;1291;51.420;6.970;2023-06-10T12:24:08;9.45;;;6.47;;
2562;SDS011;1291;51.420;6.970;2023-06-10T12:29:12;6.90;;;6.20;;
2562;SDS011;1291;51.420;6.970;2023-06-10T12:32:02;9.15;;;5.95;;
2562;SDS011;1291;51.420;6.970;2023-06-10T12:34:34;9.23;;;5.93;;
2562;SDS011;1291;51.420;6.970;2023-06-10T12:37:01;6.65;;;5.97;;
2562;SDS011;1291;51.420;6.970;2023-06-10T12:39:29;7.32;;;6.63;;
2562;SDS011;1291;51.420;6.970;2023-06-10T12:41:54;8.43;;;6.65;;
2562;SDS011;1291;51.420;6.970;2023-06-10T12:44:33;7.68;;;6.88;;
2562;SDS011;1291;51.420;6.970;2023-06-10T12:46:59;6.72;;;6.03;;
2562;SDS011;1291;51.420;6.970;2023-06-10T12:49:26;7.85;;;5.78;;
2562;SDS011;1291;51.420;6.970;2023-06-10T12:51:51;10.52;;;6.90;;
2562;SDS011;1291;51.420;6.970;2023-06-10T12:54:17;7.15;;;6.47;;
2562;SDS011;1291;51.420;6.970;2023-06-10T12:56:42;7.97;;;6.22;;
2562;SDS011;1291;51.420;6.970;2023-06-10T12:59:08;7.18;;;6.10;;
2562;SDS011;1291;51.420;6.970;2023-06-10T13:01:34;10.98;;;6.10;;
2562;SDS011;1291;51.420;6.970;2023-06-10T13:03:59;9.47;;;6.83;;
2562;SDS011;1291;51.420;6.970;2023-06-10T13:06:25;6.72;;;6.03;;
2562;SDS011;1291;51.420;6.970;2023-06-10T13:08:50;7.82;;;6.43;;
2562;SDS011;1291;51.420;6.970;2023-06-10T13:11:16;6.78;;;6.05;;
2562;SDS011;1291;51.420;6.970;2023-06-10T13:13:41;6.45;;;5.80;;
2562;SDS011;1291;51.420;6.970;2023-06-10T13:16:12;7.05;;;6.35;;
2562;SDS011;1291;51.420;6.970;2023-06-10T13:18:38;7.30;;;6.60;;
2562;SDS011;1291;51.420;6.970;2023-06-10T13:21:03;6.57;;;6.05;;
2562;SDS011;1291;51.420;6.970;2023-06-10T13:23:29;9.40;;;6.50;;
2562;SDS011;1291;51.420;6.970;2023-06-10T13:25:56;6.82;;;5.68;;
2562;SDS011;1291;51.420;6.970;2023-06-10T13:28:22;11.70;;;6.75;;
2562;SDS011;1291;51.420;6.970;2023-06-10T13:30:47;7.35;;;6.30;;
2562;SDS011;1291;51.420;6.970;2023-06-10T13:33:12;6.50;;;5.88;;
2562;SDS011;1291;51.420;6.970;2023-06-10T13:35:38;7.57;;;6.07;;
2562;SDS011;1291;51.420;6.970;2023-06-10T13:38:03;6.90;;;6.30;;
2562;SDS011;1291;51.420;6.970;2023-06-10T13:40:28;7.30;;;6.60;;
2562;SDS011;1291;51.420;6.970;2023-06-10T13:42:54;7.80;;;6.55;;
2562;SDS011;1291;51.420;6.970;2023-06-10T13:45:19;7.03;;;6.38;;
2562;SDS011;1291;51.420;6.970;2023-06-10T13:47:44;10.10;;;6.38;;
2562;SDS011;1291;51.420;6.970;2023-06-10T13:50:10;7.43;;;6.65;;
2562;SDS011;1291;51.420;6.970;2023-06-10T13:52:36;6.53;;;5.88;;
2562;SDS011;1291;51.420;6.970;2023-06-10T13:55:01;8.63;;;6.43;;
2562;SDS011;1291;51.420;6.970;2023-06-10T13:57:29;8.50;;;6.20;;
2562;SDS011;1291;51.420;6.970;2023-06-10T13:59:54;5.93;;;5.43;;
2562;SDS011;1291;51.420;6.970;2023-06-10T14:02:21;8.02;;;6.13;;
2562;SDS011;1291;51.420;6.970;2023-06-10T14:04:46;7.78;;;6.32;;
2562;SDS011;1291;51.420;6.970;2023-06-10T14:07:12;13.25;;;6.38;;
2562;SDS011;1291;51.420;6.970;2023-06-10T14:09:37;6.97;;;5.80;;
2562;SDS011;1291;51.420;6.970;2023-06-10T14:12:03;10.18;;;6.50;;
2562;SDS011;1291;51.420;6.970;2023-06-10T14:14:30;10.55;;;8.88;;
2562;SDS011;1291;51.420;6.970;2023-06-10T14:16:59;8.90;;;6.50;;
2562;SDS011;1291;51.420;6.970;2023-06-10T14:19:24;7.85;;;6.60;;
2562;SDS011;1291;51.420;6.970;2023-06-10T14:21:49;6.30;;;5.70;;
2562;SDS011;1291;51.420;6.970;2023-06-10T14:24:15;6.53;;;5.93;;
2562;SDS011;1291;51.420;6.970;2023-06-10T14:26:40;9.38;;;6.28;;
2562;SDS011;1291;51.420;6.970;2023-06-10T14:29:05;8.60;;;6.50;;
2562;SDS011;1291;51.420;6.970;2023-06-10T14:31:32;9.38;;;5.97;;
2562;SDS011;1291;51.420;6.970;2023-06-10T14:33:57;8.27;;;6.72;;
2562;SDS011;1291;51.420;6.970;2023-06-10T14:36:23;7.95;;;5.95;;
2562;SDS011;1291;51.420;6.970;2023-06-10T14:38:48;6.93;;;6.28;;
2562;SDS011;1291;51.420;6.970;2023-06-10T14:41:13;6.70;;;6.05;;
2562;SDS011;1291;51.420;6.970;2023-06-10T14:43:38;6.80;;;6.00;;
2562;SDS011;1291;51.420;6.970;2023-06-10T14:46:04;6.25;;;5.75;;
2562;SDS011;1291;51.420;6.970;2023-06-10T14:48:29;7.32;;;5.88;;
2562;SDS011;1291;51.420;6.970;2023-06-10T14:50:55;7.40;;;6.60;;
2562;SDS011;1291;51.420;6.970;2023-06-10T14:53:20;7.15;;;6.40;;
2562;SDS011;1291;51.420;6.970;2023-06-10T14:55:45;9.45;;;6.65;;
2562;SDS011;1291;51.420;6.970;2023-06-10T14:58:11;9.63;;;6.43;;
2562;SDS011;1291;51.420;6.970;2023-06-10T15:00:36;7.95;;;5.93;;
2562;SDS011;1291;51.420;6.970;2023-06-10T15:03:01;9.13;;;6.18;;
2562;SDS011;1291;51.420;6.970;2023-06-10T15:05:27;6.82;;;6.15;;
2562;SDS011;1291;51.420;6.970;2023-06-10T15:07:53;10.18;;;6.68;;
2562;SDS011;1291;51.420;6.970;2023-06-10T15:10:18;6.45;;;5.88;;
2562;SDS011;1291;51.420;6.970;2023-06-10T15:12:46;6.97;;;5.97;;
2562;SDS011;1291;51.420;6.970;2023-06-10T15:15:11;7.13;;;5.80;;
2562;SDS011;1291;51.420;6.970;2023-06-10T15:17:36;9.23;;;5.85;;
2562;SDS011;1291;51.420;6.970;2023-06-10T15:20:02;8.45;;;5.85;;
2562;SDS011;1291;51.420;6.970;2023-06-10T15:22:27;7.10;;;6.20;;
2562;SDS011;1291;51.420;6.970;2023-06-10T15:24:53;6.43;;;5.63;;
2562;SDS011;1291;51.420;6.970;2023-06-10T15:27:19;6.50;;;5.85;;